To NAV CANADA Home Page Login to a new session Search on AWWS site Feedback and Comments Disclaimer Vers la page française équivalente Tips FAQ What's new on the site To the Forecasts and Observations / NOTAM section To "File a Flight Plan" website Publications and other links Update of the User's profile FIC Telephone Numbers My Weather Data Folder Route Weather Data Regional Weather Data Local Weather Data To the Forecasts and Observations / NOTAM section
Request Generated 07/04/2015 at 15:16:50 UTC . Weather information available at that time is displayed.

METAR/TAF

STEPHENVILLE/NL    

METAR CYJT 041500Z 25009KT 15SM FEW005 BKN012 14/12 A2990 RMK SF2SC5
SLP124=
METAR CYJT 041400Z 25009KT 15SM SCT004 OVC010 13/12 A2989 RMK SF3SF5
SLP121=
METAR CYJT 041300Z 24008KT 12SM SCT004 OVC010 13/12 A2987 RMK SF4SF4
SLP115=

TAF CYJT 041141Z 0412/0512 24010KT 6SM BR SCT003 OVC010 TEMPO
0412/0415 2SM -RA -DZ BR BKN003 OVC010 PROB30 0412/0415 1/2SM FG
VV002
FM041500 24010KT P6SM BKN010 TEMPO 0415/0418 FEW010 BKN025
FM041800 23010KT P6SM SCT020 TEMPO 0418/0424 BKN020
FM050000 VRB03KT P6SM SKC
FM051100 VRB03KT P6SM BKN200
RMK NXT FCST BY 041800Z=
Your time UTC time
Weather data provided by Environment Canada and NAV CANADA